createdAt,value
2018-10-05T00:00:31.271Z,19.20
2018-10-05T00:02:59.895Z,19.20
2018-10-05T00:05:28.464Z,19.20
2018-10-05T00:07:57.032Z,19.10
2018-10-05T00:10:25.606Z,19.10
2018-10-05T00:12:54.236Z,19.10
2018-10-05T00:15:22.943Z,19.10
2018-10-05T00:17:51.512Z,19.10
2018-10-05T00:20:20.812Z,19.10
2018-10-05T00:22:49.372Z,19.10
2018-10-05T00:25:17.893Z,19.10
2018-10-05T00:27:46.454Z,19.10
2018-10-05T00:30:15.061Z,19.10
2018-10-05T00:32:43.706Z,19.10
2018-10-05T00:35:12.288Z,19.10
2018-10-05T00:37:40.893Z,19.10
2018-10-05T00:40:09.472Z,19.10
2018-10-05T00:42:38.007Z,19.10
2018-10-05T00:45:06.606Z,19.10
2018-10-05T00:47:35.169Z,19.10
2018-10-05T00:50:03.768Z,19.10
2018-10-05T00:52:32.377Z,19.10
2018-10-05T00:55:00.955Z,19.10
2018-10-05T00:57:29.573Z,19.10
2018-10-05T00:59:58.134Z,19.00
2018-10-05T01:02:26.679Z,19.10
2018-10-05T01:04:55.223Z,19.00
2018-10-05T01:07:24.374Z,19.00
2018-10-05T01:09:52.969Z,19.00
2018-10-05T01:12:21.555Z,19.00
2018-10-05T01:14:50.134Z,19.00
2018-10-05T01:17:18.686Z,19.00
2018-10-05T01:19:47.297Z,19.00
2018-10-05T01:22:15.862Z,19.00
2018-10-05T01:24:44.507Z,19.00
2018-10-05T01:27:13.016Z,19.00
2018-10-05T01:29:41.587Z,19.00
2018-10-05T01:32:10.147Z,19.00
2018-10-05T01:34:38.776Z,19.00
2018-10-05T01:37:07.323Z,19.00
2018-10-05T01:39:35.937Z,19.00
2018-10-05T01:42:04.485Z,19.00
2018-10-05T01:44:33.075Z,19.00
2018-10-05T01:47:01.666Z,19.00
2018-10-05T01:49:30.258Z,19.00
2018-10-05T01:51:58.834Z,19.00
2018-10-05T01:54:27.422Z,19.00
2018-10-05T01:56:55.976Z,18.90
2018-10-05T01:59:24.554Z,18.90
2018-10-05T02:01:53.134Z,18.90
2018-10-05T02:06:49.983Z,18.90
2018-10-05T02:09:18.540Z,19.00
2018-10-05T02:11:47.130Z,18.90
2018-10-05T02:14:15.709Z,18.90
2018-10-05T02:16:44.274Z,18.90
2018-10-05T02:19:12.858Z,19.00
2018-10-05T02:21:41.483Z,18.90
2018-10-05T02:24:10.162Z,18.90
2018-10-05T02:26:38.730Z,18.90
2018-10-05T02:29:07.485Z,18.90
2018-10-05T02:31:36.074Z,18.90
2018-10-05T02:34:04.792Z,18.90
2018-10-05T02:36:33.368Z,18.90
2018-10-05T02:39:01.891Z,18.90
2018-10-05T02:41:30.486Z,18.90
2018-10-05T02:43:59.044Z,18.90
2018-10-05T02:46:27.610Z,18.90
2018-10-05T02:48:56.179Z,18.90
2018-10-05T02:51:24.743Z,18.90
2018-10-05T02:53:53.383Z,18.90
2018-10-05T02:56:21.908Z,18.90
2018-10-05T02:58:50.439Z,18.90
2018-10-05T03:01:30.120Z,18.90
2018-10-05T03:03:58.688Z,18.90
2018-10-05T03:06:27.350Z,18.90
2018-10-05T03:08:55.900Z,18.90
2018-10-05T03:11:24.441Z,18.90
2018-10-05T03:13:52.985Z,18.90
2018-10-05T03:16:21.660Z,18.90
2018-10-05T03:18:50.187Z,18.90
2018-10-05T03:21:18.781Z,18.90
2018-10-05T03:23:47.357Z,18.90
2018-10-05T03:26:15.919Z,18.90
2018-10-05T03:28:44.630Z,18.90
2018-10-05T03:31:13.165Z,18.90
2018-10-05T03:33:41.741Z,18.80
2018-10-05T03:36:10.311Z,18.80
2018-10-05T03:38:38.834Z,18.90
2018-10-05T03:41:07.609Z,18.80
2018-10-05T03:43:36.190Z,18.80
2018-10-05T03:46:04.756Z,18.80
2018-10-05T03:48:33.323Z,18.80
2018-10-05T03:51:02.042Z,18.80
2018-10-05T03:53:30.587Z,18.80
2018-10-05T03:55:59.229Z,18.80
2018-10-05T03:58:27.755Z,18.80
2018-10-05T04:00:56.315Z,18.80
2018-10-05T04:03:24.883Z,18.80
2018-10-05T04:05:53.483Z,18.80
2018-10-05T04:08:22.112Z,18.80
2018-10-05T04:10:50.682Z,18.80
2018-10-05T04:13:19.259Z,18.80
2018-10-05T04:15:47.804Z,18.80
2018-10-05T04:18:16.386Z,18.80
2018-10-05T04:20:45.031Z,18.80
2018-10-05T04:23:13.575Z,18.80
2018-10-05T04:25:42.143Z,18.90
2018-10-05T04:28:11.063Z,18.90
2018-10-05T04:30:39.677Z,18.90
2018-10-05T04:33:08.317Z,18.90
2018-10-05T04:35:36.965Z,19.00
2018-10-05T04:38:05.487Z,19.00
2018-10-05T04:40:34.021Z,19.00
2018-10-05T04:43:02.589Z,19.00
2018-10-05T04:45:31.186Z,19.10
2018-10-05T04:50:28.011Z,19.10
2018-10-05T04:52:56.575Z,19.10
2018-10-05T04:55:25.103Z,19.10
2018-10-05T04:57:53.758Z,19.10
2018-10-05T05:00:22.320Z,19.10
2018-10-05T05:02:50.942Z,19.10
2018-10-05T05:05:19.484Z,19.10
2018-10-05T05:07:48.019Z,19.10
2018-10-05T05:10:17.304Z,19.10
2018-10-05T05:12:46.622Z,19.10
2018-10-05T05:15:15.266Z,19.10
2018-10-05T05:17:44.540Z,19.10
2018-10-05T05:20:13.101Z,19.10
2018-10-05T05:22:41.655Z,19.10
2018-10-05T05:25:10.220Z,19.10
2018-10-05T05:27:38.808Z,19.30
2018-10-05T05:30:07.915Z,19.40
2018-10-05T05:32:36.480Z,19.50
2018-10-05T05:35:05.142Z,19.50
2018-10-05T05:37:33.696Z,19.50
2018-10-05T05:40:02.337Z,19.50
2018-10-05T05:42:30.933Z,19.50
2018-10-05T05:44:59.590Z,19.50
2018-10-05T05:47:28.107Z,19.40
2018-10-05T05:49:56.742Z,19.40
2018-10-05T05:52:25.338Z,19.40
2018-10-05T05:54:53.887Z,19.30
2018-10-05T05:57:22.537Z,19.30
2018-10-05T05:59:51.366Z,19.30
2018-10-05T06:02:20.099Z,19.30
2018-10-05T06:04:48.707Z,19.30
2018-10-05T06:07:17.634Z,19.30
2018-10-05T06:09:46.274Z,19.20
2018-10-05T06:12:15.001Z,19.20
2018-10-05T06:14:43.872Z,19.20
2018-10-05T06:17:13.310Z,19.20
2018-10-05T06:19:41.867Z,19.20
2018-10-05T06:22:10.708Z,19.20
2018-10-05T06:24:39.087Z,19.20
2018-10-05T06:27:07.700Z,19.20
2018-10-05T06:29:36.342Z,19.10
2018-10-05T06:32:04.913Z,19.10
2018-10-05T06:34:33.497Z,19.10
2018-10-05T06:37:02.060Z,19.10
2018-10-05T06:39:30.803Z,19.10
2018-10-05T06:41:59.477Z,19.10
2018-10-05T06:44:28.023Z,19.10
2018-10-05T06:46:56.573Z,19.10
2018-10-05T06:49:25.176Z,19.10
2018-10-05T06:51:53.770Z,19.10
2018-10-05T06:54:22.323Z,19.10
2018-10-05T06:56:51.046Z,19.10
2018-10-05T06:59:19.596Z,19.10
2018-10-05T07:01:48.131Z,19.10
2018-10-05T07:04:16.730Z,19.10
2018-10-05T07:06:46.028Z,19.10
2018-10-05T07:09:15.259Z,19.10
2018-10-05T07:11:44.431Z,19.10
2018-10-05T07:14:12.997Z,19.10
2018-10-05T07:16:41.679Z,19.10
2018-10-05T07:19:10.335Z,19.10
2018-10-05T07:21:38.924Z,19.10
2018-10-05T07:24:07.582Z,19.10
2018-10-05T07:26:36.143Z,19.10
2018-10-05T07:29:04.700Z,19.10
2018-10-05T07:31:33.266Z,19.10
2018-10-05T07:34:01.851Z,19.00
2018-10-05T07:36:30.435Z,19.10
2018-10-05T07:38:59.013Z,19.10
2018-10-05T07:41:27.791Z,19.10
2018-10-05T07:43:56.341Z,19.10
2018-10-05T07:46:24.901Z,19.10
2018-10-05T07:48:53.547Z,19.10
2018-10-05T07:51:22.127Z,19.00
2018-10-05T07:53:50.664Z,19.00
2018-10-05T07:56:19.229Z,19.00
2018-10-05T07:58:47.878Z,19.00
2018-10-05T08:01:16.471Z,19.00
2018-10-05T08:03:45.128Z,19.00
2018-10-05T08:06:13.694Z,19.00
2018-10-05T08:08:42.275Z,19.00
2018-10-05T08:11:10.930Z,19.00
2018-10-05T08:13:39.540Z,19.00
2018-10-05T08:16:08.278Z,19.00
2018-10-05T08:18:37.426Z,19.00
2018-10-05T08:21:06.009Z,19.00
2018-10-05T08:23:34.563Z,19.00
2018-10-05T08:26:03.088Z,19.00
2018-10-05T08:28:31.700Z,19.00
2018-10-05T08:31:00.275Z,19.00
2018-10-05T08:33:28.883Z,19.00
2018-10-05T08:35:57.440Z,19.00
2018-10-05T08:38:25.999Z,19.00
2018-10-05T08:40:54.599Z,19.00
2018-10-05T08:43:23.212Z,19.00
2018-10-05T08:45:51.823Z,19.00
2018-10-05T08:48:20.321Z,19.00
2018-10-05T08:50:48.896Z,19.00
2018-10-05T08:53:17.462Z,19.00
2018-10-05T08:55:46.060Z,19.00
2018-10-05T08:58:14.620Z,19.10
2018-10-05T09:00:43.164Z,19.10
2018-10-05T09:03:11.786Z,19.10
2018-10-05T09:05:40.472Z,19.10
2018-10-05T09:08:09.265Z,19.10
2018-10-05T09:10:37.815Z,19.10
2018-10-05T09:13:06.814Z,19.10
2018-10-05T09:15:35.360Z,19.10
2018-10-05T09:18:03.969Z,19.10
2018-10-05T09:20:32.518Z,19.10
2018-10-05T09:23:01.086Z,19.10
2018-10-05T09:25:29.768Z,19.10
2018-10-05T09:27:58.363Z,19.10
2018-10-05T09:30:27.045Z,19.10
2018-10-05T09:32:55.628Z,19.10
2018-10-05T09:35:24.164Z,19.10
2018-10-05T09:37:53.263Z,19.10
2018-10-05T09:42:50.049Z,19.10
2018-10-05T09:45:18.685Z,19.00
2018-10-05T09:47:47.288Z,19.00
2018-10-05T09:50:16.155Z,19.00
2018-10-05T09:52:45.476Z,19.00
2018-10-05T09:55:14.763Z,19.00
2018-10-05T09:57:43.335Z,19.00
2018-10-05T10:00:17.167Z,19.00
2018-10-05T10:02:52.063Z,19.00
2018-10-05T10:05:21.667Z,19.00
2018-10-05T10:07:50.303Z,19.00
2018-10-05T10:10:18.963Z,19.00
2018-10-05T10:12:47.562Z,19.00
2018-10-05T10:15:16.235Z,19.00
2018-10-05T10:17:44.882Z,19.00
2018-10-05T10:20:13.509Z,19.00
2018-10-05T10:22:42.103Z,19.00
2018-10-05T10:25:11.197Z,19.00
2018-10-05T10:27:39.900Z,19.00
2018-10-05T10:30:08.751Z,19.00
2018-10-05T10:32:37.300Z,19.00
2018-10-05T10:35:05.844Z,19.00
2018-10-05T10:37:34.441Z,19.00
2018-10-05T10:40:03.182Z,19.00
2018-10-05T10:42:31.772Z,19.00
2018-10-05T10:45:00.352Z,19.00
2018-10-05T10:47:29.010Z,19.00
2018-10-05T10:49:57.549Z,19.00
2018-10-05T10:52:26.170Z,19.00
2018-10-05T10:54:54.795Z,19.10
2018-10-05T10:57:23.431Z,19.10
2018-10-05T10:59:51.968Z,19.10
2018-10-05T11:02:20.516Z,19.10
2018-10-05T11:04:49.080Z,19.10
2018-10-05T11:07:17.650Z,19.00
2018-10-05T11:09:46.206Z,19.00
2018-10-05T11:12:14.776Z,19.00
2018-10-05T11:14:43.343Z,19.00
2018-10-05T11:17:12.284Z,19.00
2018-10-05T11:19:41.078Z,19.10
2018-10-05T11:22:10.536Z,19.10
2018-10-05T11:24:40.682Z,19.10
2018-10-05T11:27:11.036Z,19.10
2018-10-05T11:29:39.724Z,19.00
2018-10-05T11:32:08.367Z,19.10
2018-10-05T11:34:37.043Z,19.10
2018-10-05T11:37:06.295Z,19.10
2018-10-05T11:39:34.946Z,19.10
2018-10-05T11:42:03.579Z,19.10
2018-10-05T11:44:32.408Z,19.10
2018-10-05T11:47:01.194Z,19.10
2018-10-05T11:49:29.799Z,19.10
2018-10-05T11:51:58.368Z,19.10
2018-10-05T11:54:27.674Z,19.10
2018-10-05T11:56:56.431Z,19.10
2018-10-05T11:59:31.200Z,19.10
2018-10-05T12:01:59.816Z,19.10
2018-10-05T12:04:28.412Z,19.10
2018-10-05T12:06:57.010Z,19.10
2018-10-05T12:09:25.562Z,19.10
2018-10-05T12:11:54.138Z,19.10
2018-10-05T12:14:22.716Z,19.10
2018-10-05T12:16:51.326Z,19.10
2018-10-05T12:19:20.019Z,19.10
2018-10-05T12:21:48.575Z,19.10
2018-10-05T12:24:17.141Z,19.20
2018-10-05T12:26:45.777Z,19.20
2018-10-05T12:29:14.293Z,19.10
2018-10-05T12:31:42.861Z,19.20
2018-10-05T12:34:11.452Z,19.20
2018-10-05T12:36:39.987Z,19.20
2018-10-05T12:39:09.057Z,19.20
2018-10-05T12:41:38.111Z,19.20
2018-10-05T12:44:07.083Z,19.20
2018-10-05T12:46:36.019Z,19.20
2018-10-05T12:49:04.627Z,19.20
2018-10-05T12:51:33.283Z,19.20
2018-10-05T12:54:01.880Z,19.20
2018-10-05T12:56:30.539Z,19.20
2018-10-05T12:58:59.076Z,19.30
2018-10-05T13:01:27.705Z,19.30
2018-10-05T13:03:56.260Z,19.30
2018-10-05T13:06:24.844Z,19.30
2018-10-05T13:08:53.422Z,19.30
2018-10-05T13:11:52.795Z,19.30
2018-10-05T13:14:21.368Z,19.30
2018-10-05T13:16:50.044Z,19.30
2018-10-05T13:19:18.609Z,19.30
2018-10-05T13:21:47.228Z,19.30
2018-10-05T13:24:15.740Z,19.20
2018-10-05T13:26:44.325Z,19.30
2018-10-05T13:29:12.890Z,19.20
2018-10-05T13:31:41.553Z,19.30
2018-10-05T13:34:10.242Z,19.30
2018-10-05T13:36:38.790Z,19.30
2018-10-05T13:39:09.639Z,19.30
2018-10-05T13:41:38.549Z,19.30
2018-10-05T13:44:07.159Z,19.30
2018-10-05T13:46:36.300Z,19.30
2018-10-05T13:49:05.730Z,19.30
2018-10-05T13:51:35.269Z,19.30
2018-10-05T13:54:04.648Z,19.20
2018-10-05T13:56:33.368Z,19.30
2018-10-05T15:46:58.373Z,20.20
2018-10-05T15:49:27.356Z,20.20
2018-10-05T15:51:55.935Z,20.20
2018-10-05T15:54:24.499Z,20.20
2018-10-05T15:56:53.226Z,20.10
2018-10-05T15:59:21.860Z,20.10
2018-10-05T16:01:50.438Z,20.10
2018-10-05T16:04:19.029Z,20.00
2018-10-05T16:06:48.159Z,20.00
2018-10-05T16:09:16.764Z,20.00
2018-10-05T16:11:45.346Z,19.90
2018-10-05T16:14:13.948Z,19.90
2018-10-05T16:16:42.527Z,19.90
2018-10-05T16:19:11.148Z,19.90
2018-10-05T16:21:39.705Z,19.90
2018-10-05T16:24:16.867Z,19.90
2018-10-05T16:26:45.480Z,19.80
2018-10-05T16:29:14.059Z,19.80
2018-10-05T16:31:42.646Z,19.80
2018-10-05T16:34:11.215Z,19.80
2018-10-05T16:36:39.769Z,19.80
2018-10-05T16:39:09.912Z,19.70
2018-10-05T16:41:38.458Z,19.70
2018-10-05T16:44:07.485Z,19.70
2018-10-05T16:46:37.776Z,19.70
2018-10-05T16:49:07.508Z,19.70
2018-10-05T16:51:36.097Z,19.70
2018-10-05T16:54:04.770Z,19.70
2018-10-05T16:56:33.466Z,19.70
2018-10-05T16:59:02.223Z,19.70
2018-10-05T17:01:30.832Z,19.70
2018-10-05T17:03:59.516Z,19.60
2018-10-05T17:06:28.144Z,19.70
2018-10-05T17:09:03.131Z,19.70
2018-10-05T17:11:31.908Z,19.60
2018-10-05T17:14:00.736Z,19.60
2018-10-05T17:16:29.479Z,19.60
2018-10-05T17:18:58.401Z,19.70
2018-10-05T17:21:27.127Z,19.70
2018-10-05T17:23:55.792Z,19.70
2018-10-05T17:26:24.368Z,19.70
2018-10-05T17:28:53.251Z,19.60
2018-10-05T17:31:22.166Z,19.70
2018-10-05T17:33:51.462Z,19.70
2018-10-05T17:36:20.358Z,19.70
2018-10-05T17:38:49.524Z,19.60
2018-10-05T17:41:18.660Z,19.70
2018-10-05T17:43:47.415Z,19.80
2018-10-05T17:46:15.951Z,19.90
2018-10-05T17:48:44.783Z,19.90
2018-10-05T17:51:13.390Z,20.10
2018-10-05T17:53:42.000Z,20.20
2018-10-05T17:56:10.651Z,20.40
2018-10-05T17:58:39.360Z,20.50
2018-10-05T18:01:08.112Z,20.70
2018-10-05T18:03:36.693Z,20.90
2018-10-05T18:06:05.323Z,21.10
2018-10-05T18:08:33.957Z,21.10
2018-10-05T18:11:02.588Z,21.30
2018-10-05T18:13:31.192Z,21.40
2018-10-05T18:15:59.791Z,21.50
2018-10-05T18:18:28.424Z,21.60
2018-10-05T18:20:57.024Z,21.60
2018-10-05T18:23:25.610Z,21.70
2018-10-05T18:25:54.216Z,21.70
2018-10-05T18:28:22.821Z,21.80
2018-10-05T18:30:51.411Z,21.80
2018-10-05T18:33:19.971Z,21.80
2018-10-05T18:35:48.525Z,21.90
2018-10-05T18:38:17.076Z,22.00
2018-10-05T18:40:45.620Z,22.00
2018-10-05T18:43:14.252Z,22.00
2018-10-05T19:11:17.185Z,22.40
2018-10-05T19:13:46.151Z,22.40
2018-10-05T19:16:14.668Z,22.40
2018-10-05T19:18:43.227Z,22.40
2018-10-05T19:21:11.826Z,22.40
2018-10-05T19:23:40.625Z,22.40
2018-10-05T19:26:09.339Z,22.40
2018-10-05T19:28:37.876Z,22.40
2018-10-05T19:31:06.604Z,22.40
2018-10-05T19:33:35.199Z,22.40
2018-10-05T19:36:03.832Z,22.40
2018-10-05T19:42:02.156Z,22.30
2018-10-05T19:44:35.625Z,22.40
2018-10-05T19:59:25.663Z,22.40
2018-10-05T20:01:54.515Z,22.40
2018-10-05T20:10:06.625Z,22.30
2018-10-05T20:12:35.091Z,22.30
2018-10-05T20:15:03.689Z,22.30
2018-10-05T20:23:34.699Z,22.30
2018-10-05T20:28:54.320Z,22.30
2018-10-05T20:31:26.643Z,22.30
2018-10-05T20:33:55.262Z,22.30
2018-10-05T20:36:25.893Z,22.40
2018-10-05T20:38:55.234Z,22.40
2018-10-05T20:41:36.659Z,22.40
2018-10-05T20:46:56.128Z,22.30
2018-10-05T20:49:24.700Z,22.30
2018-10-05T20:51:53.294Z,22.30
2018-10-05T20:54:21.876Z,22.30
2018-10-05T20:56:50.438Z,22.30
2018-10-05T21:05:02.489Z,22.40
2018-10-05T21:07:31.142Z,22.40
2018-10-05T21:09:59.755Z,22.40
2018-10-05T21:12:28.429Z,22.40
2018-10-05T21:14:57.072Z,22.40
2018-10-05T21:17:25.683Z,22.30
2018-10-05T21:19:54.332Z,22.30
2018-10-05T21:22:22.963Z,22.30
2018-10-05T21:24:51.617Z,22.30
2018-10-05T21:27:20.282Z,22.30
2018-10-05T21:29:48.891Z,22.20
2018-10-05T21:32:17.498Z,22.30
2018-10-05T21:34:46.124Z,22.30
2018-10-05T21:37:14.735Z,22.30
2018-10-05T21:39:43.372Z,22.30
2018-10-05T21:42:12.030Z,22.30
2018-10-05T21:44:41.122Z,22.30
2018-10-05T21:47:09.759Z,22.30
2018-10-05T21:49:38.618Z,22.50
2018-10-05T21:52:07.321Z,22.50
2018-10-05T21:54:36.873Z,22.50
2018-10-05T21:57:05.484Z,22.60
2018-10-05T21:59:34.110Z,22.50
2018-10-05T22:02:02.730Z,22.40
2018-10-05T22:04:31.402Z,22.40
2018-10-05T22:07:00.076Z,22.30
2018-10-05T22:09:30.173Z,22.30
2018-10-05T22:11:58.820Z,22.20
2018-10-05T22:14:27.663Z,22.20
2018-10-05T22:16:56.304Z,22.20
2018-10-05T22:19:24.974Z,22.10
2018-10-05T22:21:53.566Z,22.10
2018-10-05T22:24:22.266Z,22.20
2018-10-05T22:26:50.904Z,22.20
2018-10-05T22:29:19.606Z,22.10
2018-10-05T22:31:48.417Z,22.10
2018-10-05T22:34:17.065Z,22.10
2018-10-05T22:36:45.678Z,22.10
2018-10-05T22:39:15.649Z,22.10
2018-10-05T22:41:44.294Z,22.10
2018-10-05T22:44:12.967Z,22.10
2018-10-05T22:46:41.571Z,22.10
2018-10-05T22:49:10.190Z,22.20
2018-10-05T22:51:39.416Z,22.20
2018-10-05T22:54:08.025Z,22.20
2018-10-05T22:56:36.719Z,22.20
2018-10-05T22:59:05.326Z,22.20
2018-10-05T23:01:33.931Z,22.20
2018-10-05T23:04:02.519Z,22.20
2018-10-05T23:06:31.116Z,22.10
2018-10-05T23:09:00.254Z,22.20
2018-10-05T23:11:28.888Z,22.10
2018-10-05T23:13:57.531Z,22.20
2018-10-05T23:16:26.180Z,22.20
2018-10-05T23:18:54.805Z,22.20
2018-10-05T23:21:23.454Z,22.10
2018-10-05T23:23:52.144Z,22.10
2018-10-05T23:26:20.845Z,22.10
2018-10-05T23:28:49.603Z,22.10
2018-10-05T23:31:19.059Z,22.20
2018-10-05T23:33:48.941Z,22.20
2018-10-05T23:36:17.590Z,22.10
2018-10-05T23:38:46.339Z,22.10
2018-10-05T23:41:14.937Z,22.10
2018-10-05T23:43:43.531Z,22.10
2018-10-05T23:46:12.169Z,22.10
2018-10-05T23:48:40.810Z,22.10
2018-10-05T23:51:09.411Z,22.10
2018-10-05T23:53:38.064Z,22.10
2018-10-05T23:56:10.106Z,22.00
2018-10-05T23:58:38.784Z,22.10
